createdAt,value
2022-12-05T00:00:24.081Z,101285.91
2022-12-05T00:02:55.424Z,101272.72
2022-12-05T00:05:26.754Z,101273.63
2022-12-05T00:07:58.138Z,101277.16
2022-12-05T00:10:29.455Z,101271.94
2022-12-05T00:13:00.790Z,101272.81
2022-12-05T00:15:32.085Z,101274.53
2022-12-05T00:18:03.807Z,101273.69
2022-12-05T00:20:35.169Z,101269.28
2022-12-05T00:23:06.461Z,101272.81
2022-12-05T00:25:37.856Z,101259.63
2022-12-05T00:28:09.122Z,101267.56
2022-12-05T00:30:40.832Z,101253.59
2022-12-05T00:33:12.224Z,101251.75
2022-12-05T00:35:43.482Z,101267.59
2022-12-05T00:38:14.853Z,101250.03
2022-12-05T00:40:46.139Z,101259.66
2022-12-05T00:43:17.421Z,101264.97
2022-12-05T00:45:48.739Z,101254.41
2022-12-05T00:48:20.069Z,101252.66
2022-12-05T00:51:00.545Z,101252.56
2022-12-05T00:53:32.732Z,101253.47
2022-12-05T00:56:14.531Z,101250.91
2022-12-05T00:58:46.764Z,101257.00
2022-12-05T01:01:32.831Z,101254.41
2022-12-05T01:04:11.313Z,101262.31
2022-12-05T01:06:43.338Z,101252.59
2022-12-05T01:09:18.823Z,101261.41
2022-12-05T01:11:50.604Z,101251.75
2022-12-05T01:14:23.928Z,101253.56
2022-12-05T01:16:56.140Z,101247.41
2022-12-05T01:19:30.097Z,101248.28
2022-12-05T01:22:01.665Z,101235.91
2022-12-05T01:24:32.946Z,101247.34
2022-12-05T01:27:04.304Z,101249.09
2022-12-05T01:29:35.644Z,101237.63
2022-12-05T01:32:07.016Z,101246.41
2022-12-05T01:34:38.430Z,101256.91
2022-12-05T01:37:09.785Z,101261.31
2022-12-05T01:39:41.165Z,101264.84
2022-12-05T01:42:12.847Z,101263.06
2022-12-05T01:44:47.136Z,101257.81
2022-12-05T01:47:19.088Z,101244.63
2022-12-05T01:49:50.455Z,101247.28
2022-12-05T01:52:25.305Z,101232.41
2022-12-05T01:55:08.534Z,101244.75
2022-12-05T01:57:41.007Z,101241.19
2022-12-05T02:00:16.311Z,101243.03
2022-12-05T02:02:54.595Z,101246.53
2022-12-05T02:05:37.519Z,101244.78
2022-12-05T02:08:10.740Z,101248.31
2022-12-05T02:11:00.243Z,101244.78
2022-12-05T02:13:59.567Z,101242.19
2022-12-05T02:16:58.657Z,101228.09
2022-12-05T02:20:02.860Z,101236.06
2022-12-05T02:22:42.225Z,101231.66
2022-12-05T02:25:51.689Z,101228.19
2022-12-05T02:28:52.984Z,101219.44
2022-12-05T02:31:51.475Z,101217.66
2022-12-05T02:34:40.404Z,101202.78
2022-12-05T02:37:22.787Z,101211.56
2022-12-05T02:40:10.594Z,101209.84
2022-12-05T02:42:44.858Z,101209.03
2022-12-05T02:45:18.753Z,101206.44
2022-12-05T02:47:52.782Z,101195.91
2022-12-05T02:50:29.121Z,101197.69
2022-12-05T02:53:03.553Z,101200.31
2022-12-05T02:55:35.477Z,101193.19
2022-12-05T02:58:11.688Z,101194.97
2022-12-05T03:00:47.361Z,101195.88
2022-12-05T03:03:21.963Z,101201.16
2022-12-05T03:06:05.163Z,101196.75
2022-12-05T03:08:48.521Z,101198.56
2022-12-05T03:11:20.260Z,101198.59
2022-12-05T03:13:55.891Z,101195.09
2022-12-05T03:16:38.726Z,101192.47
2022-12-05T03:19:20.069Z,101195.16
2022-12-05T03:22:10.644Z,101186.38
2022-12-05T03:24:43.129Z,101187.22
2022-12-05T03:27:46.418Z,101197.78
2022-12-05T03:30:20.563Z,101190.75
2022-12-05T03:33:17.759Z,101184.63
2022-12-05T03:36:04.413Z,101187.28
2022-12-05T03:38:56.652Z,101191.63
2022-12-05T03:41:45.007Z,101194.25
2022-12-05T03:44:43.088Z,101201.25
2022-12-05T03:47:42.249Z,101199.53
2022-12-05T03:50:24.240Z,101200.44
2022-12-05T03:53:20.351Z,101199.59
2022-12-05T03:56:02.221Z,101199.56
2022-12-05T03:58:41.610Z,101197.88
2022-12-05T04:01:16.672Z,101200.50
2022-12-05T04:03:56.416Z,101192.63
2022-12-05T04:06:33.175Z,101192.56
2022-12-05T04:09:12.381Z,101195.25
2022-12-05T04:11:53.195Z,101191.75
2022-12-05T04:14:35.349Z,101198.78
2022-12-05T04:17:16.919Z,101192.63
2022-12-05T04:20:15.670Z,101200.44
2022-12-05T04:22:47.295Z,101201.31
2022-12-05T04:25:34.128Z,101189.00
2022-12-05T04:28:19.641Z,101204.81
2022-12-05T04:31:13.297Z,101207.41
2022-12-05T04:33:54.622Z,101206.44
2022-12-05T04:36:45.070Z,101206.47
2022-12-05T04:39:22.807Z,101199.50
2022-12-05T04:42:00.054Z,101203.03
2022-12-05T04:44:37.933Z,101209.16
2022-12-05T04:47:14.772Z,101200.34
2022-12-05T04:49:52.166Z,101190.72
2022-12-05T04:52:25.688Z,101191.59
2022-12-05T04:55:09.496Z,101187.22
2022-12-05T04:57:52.219Z,101192.53
2022-12-05T05:00:24.205Z,101192.53
2022-12-05T05:03:06.941Z,101192.50
2022-12-05T05:05:39.660Z,101189.00
2022-12-05T05:08:23.408Z,101185.50
2022-12-05T05:11:04.569Z,101173.28
2022-12-05T05:13:36.235Z,101175.03
2022-12-05T05:16:08.760Z,101170.69
2022-12-05T05:18:40.168Z,101165.41
2022-12-05T05:21:21.400Z,101175.94
2022-12-05T05:23:53.442Z,101157.41
2022-12-05T05:26:26.317Z,101172.38
2022-12-05T05:28:58.357Z,101171.50
2022-12-05T05:31:30.305Z,101172.38
2022-12-05T05:34:07.633Z,101171.50
2022-12-05T05:36:40.832Z,101176.75
2022-12-05T05:39:14.872Z,101175.88
2022-12-05T05:41:46.154Z,101181.13
2022-12-05T05:44:17.404Z,101192.53
2022-12-05T05:46:48.815Z,101185.50
2022-12-05T05:49:20.126Z,101189.00
2022-12-05T05:51:51.385Z,101189.81
2022-12-05T05:54:22.679Z,101187.28
2022-12-05T05:56:53.992Z,101188.13
2022-12-05T05:59:25.332Z,101188.19
2022-12-05T06:01:56.665Z,101187.34
2022-12-05T06:04:27.968Z,101193.47
2022-12-05T06:06:59.301Z,101196.06
2022-12-05T06:09:30.713Z,101197.81
2022-12-05T06:12:02.006Z,101198.69
2022-12-05T06:14:33.403Z,101195.19
2022-12-05T06:17:05.135Z,101203.13
2022-12-05T06:19:36.396Z,101200.50
2022-12-05T06:22:08.136Z,101199.66
2022-12-05T06:24:39.443Z,101190.84
2022-12-05T06:27:10.766Z,101191.75
2022-12-05T06:29:42.227Z,101197.88
2022-12-05T06:32:13.564Z,101198.72
2022-12-05T06:34:44.805Z,101196.06
2022-12-05T06:37:16.086Z,101201.31
2022-12-05T06:39:47.377Z,101201.25
2022-12-05T06:42:18.748Z,101200.34
2022-12-05T06:44:50.033Z,101216.97
2022-12-05T06:47:21.296Z,101214.31
2022-12-05T06:49:52.553Z,101217.00
2022-12-05T06:52:23.839Z,101216.06
2022-12-05T06:54:55.118Z,101200.28
2022-12-05T06:57:28.498Z,101200.31
2022-12-05T07:00:18.450Z,101204.72
2022-12-05T07:02:53.167Z,101199.53
2022-12-05T07:05:24.711Z,101194.31
2022-12-05T07:07:56.130Z,101202.25
2022-12-05T07:10:27.460Z,101200.50
2022-12-05T07:12:58.753Z,101200.53
2022-12-05T07:15:30.012Z,101203.22
2022-12-05T07:18:01.352Z,101204.09
2022-12-05T07:20:56.081Z,101201.47
2022-12-05T07:23:23.904Z,101196.09
2022-12-05T07:25:55.422Z,101197.81
2022-12-05T07:28:26.780Z,101199.56
2022-12-05T07:31:02.347Z,101197.69
2022-12-05T07:33:33.716Z,101198.56
2022-12-05T07:36:07.485Z,101191.50
2022-12-05T07:38:39.313Z,101192.34
2022-12-05T07:41:17.642Z,101190.63
2022-12-05T07:43:50.878Z,101184.41
2022-12-05T07:46:23.033Z,101200.19
2022-12-05T07:48:54.744Z,101205.44
2022-12-05T07:51:28.096Z,101203.59
2022-12-05T07:53:59.889Z,101203.53
2022-12-05T07:56:31.260Z,101206.06
2022-12-05T07:59:02.864Z,101197.25
2022-12-05T08:01:34.329Z,101188.38
2022-12-05T08:04:07.660Z,101198.88
2022-12-05T08:06:40.800Z,101197.00
2022-12-05T08:09:12.078Z,101203.09
2022-12-05T08:11:46.947Z,101202.31
2022-12-05T08:14:21.542Z,101204.97
2022-12-05T08:16:52.959Z,101203.25
2022-12-05T08:19:24.299Z,101207.66
2022-12-05T08:21:55.632Z,101215.53
2022-12-05T08:24:26.960Z,101204.97
2022-12-05T08:26:58.232Z,101210.16
2022-12-05T08:29:29.514Z,101220.66
2022-12-05T08:32:00.778Z,101219.78
2022-12-05T08:34:32.070Z,101226.84
2022-12-05T08:37:03.524Z,101220.69
2022-12-05T08:39:38.693Z,101225.00
2022-12-05T08:42:10.351Z,101229.44
2022-12-05T08:44:41.607Z,101217.16
2022-12-05T08:47:12.856Z,101235.66
2022-12-05T08:49:44.165Z,101236.50
2022-12-05T08:52:15.501Z,101233.00
2022-12-05T08:54:46.756Z,101240.88
2022-12-05T08:57:18.064Z,101230.34
2022-12-05T08:59:49.316Z,101233.75
2022-12-05T09:02:20.645Z,101249.50
2022-12-05T09:04:54.083Z,101240.59
2022-12-05T09:07:25.637Z,101251.88
2022-12-05T09:09:56.892Z,101245.69
2022-12-05T09:12:28.147Z,101247.47
2022-12-05T09:14:59.687Z,101247.38
2022-12-05T09:17:31.120Z,101246.34
2022-12-05T09:20:02.429Z,101245.47
2022-12-05T09:22:33.735Z,101234.00
2022-12-05T09:25:05.942Z,101243.59
2022-12-05T09:27:37.240Z,101241.72
2022-12-05T09:30:09.330Z,101238.19
2022-12-05T09:32:40.607Z,101242.50
2022-12-05T09:35:12.224Z,101242.53
2022-12-05T09:37:43.474Z,101237.28
2022-12-05T09:40:17.163Z,101237.25
2022-12-05T09:43:01.225Z,101248.69
2022-12-05T09:45:39.739Z,101240.78
2022-12-05T09:48:14.663Z,101233.75
2022-12-05T09:50:56.180Z,101244.31
2022-12-05T09:53:32.320Z,101246.03
2022-12-05T09:56:05.286Z,101250.38
2022-12-05T09:58:45.489Z,101244.22
2022-12-05T10:01:25.613Z,101245.09
2022-12-05T10:04:20.832Z,101246.84
2022-12-05T10:07:15.560Z,101251.16
2022-12-05T10:09:55.296Z,101238.81
2022-12-05T10:12:47.719Z,101237.94
2022-12-05T10:15:45.708Z,101234.50
2022-12-05T10:18:38.730Z,101224.91
2022-12-05T10:21:25.729Z,101227.59
2022-12-05T10:24:00.608Z,101212.66
2022-12-05T10:26:43.750Z,101230.28
2022-12-05T10:29:20.721Z,101220.69
2022-12-05T10:32:00.932Z,101226.94
2022-12-05T10:34:39.447Z,101218.31
2022-12-05T10:37:17.558Z,101221.94
2022-12-05T10:39:50.416Z,101208.06
2022-12-05T10:42:28.329Z,101214.28
2022-12-05T10:45:04.722Z,101217.00
2022-12-05T10:47:36.669Z,101220.47
2022-12-05T10:50:21.625Z,101215.16
2022-12-05T10:52:55.542Z,101215.94
2022-12-05T10:55:36.129Z,101213.28
2022-12-05T10:58:17.844Z,101219.31
2022-12-05T11:00:53.144Z,101221.03
2022-12-05T11:03:29.243Z,101211.41
2022-12-05T11:06:03.018Z,101214.88
2022-12-05T11:09:03.011Z,101216.47
2022-12-05T11:11:33.174Z,101219.03
2022-12-05T11:14:07.818Z,101217.13
2022-12-05T11:16:39.485Z,101216.13
2022-12-05T11:19:31.243Z,101207.31
2022-12-05T11:22:04.831Z,101209.06
2022-12-05T11:24:38.298Z,101206.31
2022-12-05T11:27:15.724Z,101201.88
2022-12-05T11:30:18.783Z,101199.22
2022-12-05T11:32:51.384Z,101199.19
2022-12-05T11:35:26.223Z,101187.78
2022-12-05T11:38:01.875Z,101192.16
2022-12-05T11:40:48.208Z,101198.22
2022-12-05T11:43:54.710Z,101196.47
2022-12-05T11:46:32.071Z,101201.63
2022-12-05T11:49:09.295Z,101198.94
2022-12-05T11:51:56.747Z,101200.69
2022-12-05T11:55:03.767Z,101191.03
2022-12-05T11:57:48.894Z,101190.19
2022-12-05T12:00:41.418Z,101194.59
2022-12-05T12:03:49.664Z,101191.97
2022-12-05T12:07:02.755Z,101188.56
2022-12-05T12:09:53.823Z,101177.19
2022-12-05T12:12:33.702Z,101184.16
2022-12-05T12:15:32.381Z,101183.31
2022-12-05T12:18:17.991Z,101177.19
2022-12-05T12:21:17.183Z,101177.19
2022-12-05T12:24:11.358Z,101179.84
2022-12-05T12:27:00.185Z,101168.47
2022-12-05T12:30:03.816Z,101166.78
2022-12-05T12:33:02.967Z,101172.06
2022-12-05T12:35:40.607Z,101174.69
2022-12-05T12:38:37.080Z,101176.47
2022-12-05T12:41:26.397Z,101174.03
2022-12-05T12:44:22.733Z,101166.25
2022-12-05T12:46:58.565Z,101167.22
2022-12-05T12:49:42.020Z,101168.94
2022-12-05T12:52:26.641Z,101175.03
2022-12-05T12:55:30.251Z,101171.56
2022-12-05T12:58:40.286Z,101171.63
2022-12-05T13:01:24.327Z,101173.38
2022-12-05T13:04:28.295Z,101162.09
2022-12-05T13:07:15.914Z,101159.53
2022-12-05T13:09:55.626Z,101163.13
2022-12-05T13:12:31.315Z,101156.97
2022-12-05T13:15:11.512Z,101164.94
2022-12-05T13:17:47.313Z,101154.47
2022-12-05T13:20:22.974Z,101154.44
2022-12-05T13:22:54.975Z,101149.22
2022-12-05T13:25:30.803Z,101157.00
2022-12-05T13:28:05.262Z,101158.75
2022-12-05T13:30:56.530Z,101166.56
2022-12-05T13:33:42.008Z,101156.81
2022-12-05T13:36:40.340Z,101155.84
2022-12-05T13:39:33.583Z,101155.84
2022-12-05T13:42:17.883Z,101162.84
2022-12-05T13:44:57.356Z,101164.56
2022-12-05T13:47:35.406Z,101165.41
2022-12-05T13:50:07.146Z,101164.50
2022-12-05T13:52:42.889Z,101165.41
2022-12-05T13:55:23.224Z,101172.44
2022-12-05T13:57:56.505Z,101167.19
2022-12-05T14:00:31.113Z,101167.16
2022-12-05T14:03:15.847Z,101163.66
2022-12-05T14:05:49.653Z,101167.19
2022-12-05T14:08:35.596Z,101169.78
2022-12-05T14:11:10.901Z,101167.97
2022-12-05T14:13:44.027Z,101169.69
2022-12-05T14:16:24.195Z,101175.81
2022-12-05T14:19:12.241Z,101165.34
2022-12-05T14:21:53.046Z,101162.59
2022-12-05T14:24:55.541Z,101166.09
2022-12-05T14:27:53.679Z,101173.06
2022-12-05T14:31:02.667Z,101170.38
2022-12-05T14:33:34.095Z,101171.25
2022-12-05T14:36:08.286Z,101170.31
2022-12-05T14:38:40.090Z,101162.47
2022-12-05T14:41:22.439Z,101160.69
2022-12-05T14:43:56.489Z,101159.78
2022-12-05T14:46:33.396Z,101160.69
2022-12-05T14:49:47.051Z,101167.69
2022-12-05T14:52:26.463Z,101164.19
2022-12-05T14:55:06.011Z,101163.34
2022-12-05T14:57:46.901Z,101161.66
2022-12-05T15:00:22.605Z,101162.59
2022-12-05T15:02:56.491Z,101165.19
2022-12-05T15:05:31.784Z,101169.69
2022-12-05T15:08:04.758Z,101168.78
2022-12-05T15:10:38.558Z,101166.22
2022-12-05T15:13:24.483Z,101171.44
2022-12-05T15:16:12.739Z,101172.31
2022-12-05T15:18:50.309Z,101169.69
2022-12-05T15:21:33.431Z,101166.97
2022-12-05T15:24:11.718Z,101168.69
2022-12-05T15:26:50.549Z,101175.63
2022-12-05T15:29:25.333Z,101174.69
2022-12-05T15:32:11.947Z,101173.81
2022-12-05T15:35:06.079Z,101171.13
2022-12-05T15:37:55.135Z,101164.94
2022-12-05T15:40:36.913Z,101177.19
2022-12-05T15:43:30.834Z,101178.94
2022-12-05T15:46:09.410Z,101179.78
2022-12-05T15:48:40.779Z,101178.00
2022-12-05T15:51:12.242Z,101165.63
2022-12-05T15:53:56.155Z,101172.75
2022-12-05T15:56:36.009Z,101180.56
2022-12-05T15:59:26.090Z,101174.41
2022-12-05T16:02:26.278Z,101172.56
2022-12-05T16:04:59.995Z,101175.97
2022-12-05T16:07:31.648Z,101171.53
2022-12-05T16:10:03.183Z,101174.03
2022-12-05T16:12:39.691Z,101174.94
2022-12-05T16:15:27.914Z,101173.16
2022-12-05T16:18:02.126Z,101174.00
2022-12-05T16:20:36.268Z,101175.78
2022-12-05T16:23:29.832Z,101169.59
2022-12-05T16:26:20.079Z,101167.84
2022-12-05T16:29:01.617Z,101177.44
2022-12-05T16:31:34.069Z,101176.59
2022-12-05T16:34:08.399Z,101170.44
2022-12-05T16:36:46.806Z,101184.44
2022-12-05T16:39:19.997Z,101170.41
2022-12-05T16:41:51.542Z,101182.59
2022-12-05T16:44:28.930Z,101179.06
2022-12-05T16:47:00.254Z,101179.00
2022-12-05T16:49:34.451Z,101180.69
2022-12-05T16:52:08.832Z,101184.16
2022-12-05T16:54:42.532Z,101171.88
2022-12-05T16:57:16.198Z,101177.97
2022-12-05T16:59:49.344Z,101182.25
2022-12-05T17:02:20.844Z,101177.75
2022-12-05T17:04:52.557Z,101174.03
2022-12-05T17:07:23.869Z,101175.72
2022-12-05T17:09:55.462Z,101178.25
2022-12-05T17:12:28.170Z,101175.59
2022-12-05T17:14:59.731Z,101175.47
2022-12-05T17:17:31.133Z,101178.97
2022-12-05T17:20:02.440Z,101182.41
2022-12-05T17:22:33.784Z,101178.03
2022-12-05T17:25:24.623Z,101170.13
2022-12-05T17:27:55.891Z,101173.75
2022-12-05T17:30:27.243Z,101180.78
2022-12-05T17:32:58.497Z,101183.38
2022-12-05T17:35:30.426Z,101182.56
2022-12-05T17:38:03.525Z,101177.25
2022-12-05T17:40:34.954Z,101179.78
2022-12-05T17:43:06.265Z,101186.78
2022-12-05T17:45:37.661Z,101182.53
2022-12-05T17:48:13.864Z,101182.66
2022-12-05T17:50:47.348Z,101180.06
2022-12-05T17:53:21.017Z,101182.00
2022-12-05T17:55:52.920Z,101179.47
2022-12-05T17:58:24.224Z,101188.31
2022-12-05T18:00:55.764Z,101182.19
2022-12-05T18:03:27.359Z,101187.63
2022-12-05T18:05:58.920Z,101190.28
2022-12-05T18:08:30.335Z,101199.09
2022-12-05T18:11:01.717Z,101198.22
2022-12-05T18:13:33.713Z,101184.13
2022-12-05T18:16:05.433Z,101190.25
2022-12-05T18:18:36.789Z,101198.97
2022-12-05T18:21:12.572Z,101204.22
2022-12-05T18:23:44.043Z,101201.59
2022-12-05T18:26:15.420Z,101199.75
2022-12-05T18:28:47.436Z,101201.44
2022-12-05T18:31:19.334Z,101195.28
2022-12-05T18:33:50.841Z,101200.50
2022-12-05T18:36:22.222Z,101199.53
2022-12-05T18:38:55.387Z,101198.63
2022-12-05T18:41:27.209Z,101206.34
2022-12-05T18:43:58.552Z,101197.56
2022-12-05T18:46:29.933Z,101207.19
2022-12-05T18:49:03.499Z,101207.19
2022-12-05T18:51:35.140Z,101209.81
2022-12-05T18:54:06.886Z,101195.78
2022-12-05T18:56:39.980Z,101203.69
2022-12-05T18:59:16.919Z,101201.16
2022-12-05T19:01:49.739Z,101202.06
2022-12-05T19:04:21.538Z,101198.59
2022-12-05T19:06:58.917Z,101204.72
2022-12-05T19:09:32.204Z,101203.88
2022-12-05T19:12:03.779Z,101199.47
2022-12-05T19:14:35.183Z,101208.25
2022-12-05T19:17:06.615Z,101202.13
2022-12-05T19:19:38.093Z,101190.63
2022-12-05T19:22:09.449Z,101193.28
2022-12-05T19:24:40.779Z,101194.16
2022-12-05T19:27:12.195Z,101199.28
2022-12-05T19:29:43.512Z,101201.09
2022-12-05T19:32:15.023Z,101201.09
2022-12-05T19:34:48.288Z,101193.09
2022-12-05T19:37:19.633Z,101200.09
2022-12-05T19:39:51.647Z,101200.06
2022-12-05T19:42:23.071Z,101194.75
2022-12-05T19:44:54.342Z,101199.13
2022-12-05T19:47:25.608Z,101198.22
2022-12-05T19:49:57.339Z,101199.13
2022-12-05T19:52:28.853Z,101206.06
2022-12-05T19:55:00.136Z,101201.63
2022-12-05T19:57:31.671Z,101209.44
2022-12-05T20:00:03.974Z,101203.34
2022-12-05T20:02:39.994Z,101206.88
2022-12-05T20:05:11.672Z,101205.16
2022-12-05T20:07:43.008Z,101207.78
2022-12-05T20:10:14.420Z,101201.56
2022-12-05T20:12:45.874Z,101204.22
2022-12-05T20:15:17.415Z,101206.06
2022-12-05T20:17:52.998Z,101203.50
2022-12-05T20:20:24.695Z,101199.19
2022-12-05T20:22:56.084Z,101201.81
2022-12-05T20:25:27.366Z,101200.06
2022-12-05T20:27:58.776Z,101197.50
2022-12-05T20:30:30.682Z,101184.28
2022-12-05T20:33:02.084Z,101194.94
2022-12-05T20:35:37.145Z,101191.44
2022-12-05T20:38:08.437Z,101187.09
2022-12-05T20:40:39.815Z,101180.06
2022-12-05T20:43:11.230Z,101187.13
2022-12-05T20:45:42.514Z,101187.16
2022-12-05T20:48:13.826Z,101177.50
2022-12-05T20:50:45.125Z,101188.16
2022-12-05T20:53:16.445Z,101185.53
2022-12-05T20:55:47.831Z,101177.66
2022-12-05T20:58:19.146Z,101175.13
2022-12-05T21:00:57.691Z,101169.88
2022-12-05T21:03:29.186Z,101182.19
2022-12-05T21:06:00.472Z,101176.06
2022-12-05T21:08:31.808Z,101176.06
2022-12-05T21:11:03.370Z,101176.97
2022-12-05T21:13:35.508Z,101173.50
2022-12-05T21:16:16.501Z,101171.72
2022-12-05T21:18:48.501Z,101177.81
2022-12-05T21:21:22.293Z,101167.28
2022-12-05T21:23:59.490Z,101162.09
2022-12-05T21:26:33.539Z,101164.78
2022-12-05T21:29:06.819Z,101154.16
2022-12-05T21:31:40.761Z,101157.00
2022-12-05T21:34:17.393Z,101156.13
2022-12-05T21:36:49.177Z,101153.53
2022-12-05T21:39:20.770Z,101148.31
2022-12-05T21:41:52.153Z,101150.03
2022-12-05T21:44:23.521Z,101155.28
2022-12-05T21:46:54.832Z,101143.88
2022-12-05T21:49:26.251Z,101150.97
2022-12-05T21:51:57.499Z,101144.84
2022-12-05T21:54:30.315Z,101137.84
2022-12-05T21:57:01.568Z,101137.84
2022-12-05T21:59:32.924Z,101151.84
2022-12-05T22:02:04.297Z,101148.28
2022-12-05T22:04:35.589Z,101143.81
2022-12-05T22:07:06.878Z,101157.97
2022-12-05T22:09:38.178Z,101158.84
2022-12-05T22:12:09.485Z,101153.63
2022-12-05T22:14:40.749Z,101147.56
2022-12-05T22:17:12.027Z,101141.41
2022-12-05T22:19:43.392Z,101143.13
2022-12-05T22:22:14.727Z,101138.84
2022-12-05T22:24:46.040Z,101138.84
2022-12-05T22:27:17.310Z,101126.47
2022-12-05T22:29:52.697Z,101147.53
2022-12-05T22:32:24.254Z,101141.41
2022-12-05T22:34:59.286Z,101141.41
2022-12-05T22:37:34.671Z,101137.00
2022-12-05T22:40:06.698Z,101138.78
2022-12-05T22:42:37.978Z,101134.47
2022-12-05T22:45:12.371Z,101130.06
2022-12-05T22:47:43.842Z,101130.94
2022-12-05T22:50:15.223Z,101117.78
2022-12-05T22:52:46.548Z,101123.03
2022-12-05T22:55:17.922Z,101119.47
2022-12-05T22:57:49.177Z,101117.72
2022-12-05T23:00:20.665Z,101103.69
2022-12-05T23:02:52.553Z,101113.28
2022-12-05T23:05:23.875Z,101119.31
2022-12-05T23:07:55.261Z,101112.19
2022-12-05T23:10:26.785Z,101110.56
2022-12-05T23:12:58.167Z,101112.28
2022-12-05T23:15:29.575Z,101114.06
2022-12-05T23:18:00.839Z,101108.69
2022-12-05T23:20:32.859Z,101103.47
2022-12-05T23:23:04.183Z,101108.72
2022-12-05T23:25:35.521Z,101098.19
2022-12-05T23:28:06.790Z,101105.25
2022-12-05T23:30:38.063Z,101107.00
2022-12-05T23:33:09.520Z,101100.91
2022-12-05T23:35:40.785Z,101101.00
2022-12-05T23:38:12.076Z,101089.63
2022-12-05T23:40:43.339Z,101093.19
2022-12-05T23:43:14.635Z,101088.91
2022-12-05T23:45:45.907Z,101081.81
2022-12-05T23:48:17.264Z,101081.97
2022-12-05T23:51:07.181Z,101086.44
2022-12-05T23:53:40.915Z,101086.47
2022-12-05T23:56:15.762Z,101084.81
2022-12-05T23:58:47.295Z,101087.41
